sensor_id;sensor_type;location;lat;lon;timestamp;P1;durP1;ratioP1;P2;durP2;ratioP2
65879;SDS011;52661;51.364;6.054;2023-06-10T00:02:16;10.20;;;5.22;;
65879;SDS011;52661;51.364;6.054;2023-06-10T00:04:42;8.77;;;4.75;;
65879;SDS011;52661;51.364;6.054;2023-06-10T00:07:07;11.32;;;4.38;;
65879;SDS011;52661;51.364;6.054;2023-06-10T00:09:36;6.30;;;4.40;;
65879;SDS011;52661;51.364;6.054;2023-06-10T00:12:06;9.00;;;4.65;;
65879;SDS011;52661;51.364;6.054;2023-06-10T00:14:32;8.60;;;4.90;;
65879;SDS011;52661;51.364;6.054;2023-06-10T00:16:58;9.50;;;5.57;;
65879;SDS011;52661;51.364;6.054;2023-06-10T00:19:24;7.50;;;4.57;;
65879;SDS011;52661;51.364;6.054;2023-06-10T00:21:50;12.25;;;4.63;;
65879;SDS011;52661;51.364;6.054;2023-06-10T00:24:17;14.13;;;5.20;;
65879;SDS011;52661;51.364;6.054;2023-06-10T00:26:43;12.25;;;5.55;;
65879;SDS011;52661;51.364;6.054;2023-06-10T00:29:08;7.45;;;4.50;;
65879;SDS011;52661;51.364;6.054;2023-06-10T00:31:34;9.63;;;5.20;;
65879;SDS011;52661;51.364;6.054;2023-06-10T00:34:01;10.45;;;5.03;;
65879;SDS011;52661;51.364;6.054;2023-06-10T00:36:27;10.80;;;5.13;;
65879;SDS011;52661;51.364;6.054;2023-06-10T00:38:52;11.70;;;5.85;;
65879;SDS011;52661;51.364;6.054;2023-06-10T00:41:18;11.65;;;5.00;;
65879;SDS011;52661;51.364;6.054;2023-06-10T00:43:43;12.73;;;5.22;;
65879;SDS011;52661;51.364;6.054;2023-06-10T00:46:09;12.70;;;5.72;;
65879;SDS011;52661;51.364;6.054;2023-06-10T00:48:36;10.73;;;4.80;;
65879;SDS011;52661;51.364;6.054;2023-06-10T00:51:03;9.57;;;5.35;;
65879;SDS011;52661;51.364;6.054;2023-06-10T00:53:30;10.98;;;5.95;;
65879;SDS011;52661;51.364;6.054;2023-06-10T00:55:56;7.93;;;5.18;;
65879;SDS011;52661;51.364;6.054;2023-06-10T00:58:22;10.63;;;5.00;;
65879;SDS011;52661;51.364;6.054;2023-06-10T01:00:48;10.63;;;5.38;;
65879;SDS011;52661;51.364;6.054;2023-06-10T01:03:14;8.88;;;5.47;;
65879;SDS011;52661;51.364;6.054;2023-06-10T01:05:42;9.32;;;5.47;;
65879;SDS011;52661;51.364;6.054;2023-06-10T01:10:51;10.98;;;6.00;;
65879;SDS011;52661;51.364;6.054;2023-06-10T01:13:20;11.75;;;6.93;;
65879;SDS011;52661;51.364;6.054;2023-06-10T01:15:48;14.70;;;6.78;;
65879;SDS011;52661;51.364;6.054;2023-06-10T01:18:15;15.70;;;6.63;;
65879;SDS011;52661;51.364;6.054;2023-06-10T01:20:42;14.80;;;5.90;;
65879;SDS011;52661;51.364;6.054;2023-06-10T01:23:08;8.55;;;5.40;;
65879;SDS011;52661;51.364;6.054;2023-06-10T01:25:39;12.32;;;5.68;;
65879;SDS011;52661;51.364;6.054;2023-06-10T01:30:36;7.80;;;5.13;;
65879;SDS011;52661;51.364;6.054;2023-06-10T01:33:06;12.10;;;5.68;;
65879;SDS011;52661;51.364;6.054;2023-06-10T01:35:36;9.35;;;5.82;;
65879;SDS011;52661;51.364;6.054;2023-06-10T01:38:03;10.98;;;5.03;;
65879;SDS011;52661;51.364;6.054;2023-06-10T01:40:29;9.63;;;6.40;;
65879;SDS011;52661;51.364;6.054;2023-06-10T01:42:55;10.52;;;5.25;;
65879;SDS011;52661;51.364;6.054;2023-06-10T01:45:21;10.00;;;5.68;;
65879;SDS011;52661;51.364;6.054;2023-06-10T01:47:46;9.40;;;6.03;;
65879;SDS011;52661;51.364;6.054;2023-06-10T01:50:12;8.60;;;5.93;;
65879;SDS011;52661;51.364;6.054;2023-06-10T01:52:37;11.10;;;6.28;;
65879;SDS011;52661;51.364;6.054;2023-06-10T01:55:03;14.30;;;6.15;;
65879;SDS011;52661;51.364;6.054;2023-06-10T01:57:29;13.15;;;6.35;;
65879;SDS011;52661;51.364;6.054;2023-06-10T01:59:54;11.48;;;5.70;;
65879;SDS011;52661;51.364;6.054;2023-06-10T02:02:20;10.40;;;6.53;;
65879;SDS011;52661;51.364;6.054;2023-06-10T02:04:47;13.43;;;6.32;;
65879;SDS011;52661;51.364;6.054;2023-06-10T02:07:12;14.93;;;6.72;;
65879;SDS011;52661;51.364;6.054;2023-06-10T02:09:37;14.73;;;7.27;;
65879;SDS011;52661;51.364;6.054;2023-06-10T02:12:03;13.83;;;6.60;;
65879;SDS011;52661;51.364;6.054;2023-06-10T02:14:29;12.52;;;7.07;;
65879;SDS011;52661;51.364;6.054;2023-06-10T02:16:56;13.65;;;8.48;;
65879;SDS011;52661;51.364;6.054;2023-06-10T02:19:22;11.25;;;6.63;;
65879;SDS011;52661;51.364;6.054;2023-06-10T02:21:48;11.52;;;6.43;;
65879;SDS011;52661;51.364;6.054;2023-06-10T02:24:14;9.10;;;6.57;;
65879;SDS011;52661;51.364;6.054;2023-06-10T02:26:39;11.80;;;6.40;;
65879;SDS011;52661;51.364;6.054;2023-06-10T02:29:05;11.25;;;6.50;;
65879;SDS011;52661;51.364;6.054;2023-06-10T02:31:31;10.90;;;6.50;;
65879;SDS011;52661;51.364;6.054;2023-06-10T02:33:56;10.90;;;5.65;;
65879;SDS011;52661;51.364;6.054;2023-06-10T02:36:21;11.90;;;6.43;;
65879;SDS011;52661;51.364;6.054;2023-06-10T02:38:49;10.98;;;5.80;;
65879;SDS011;52661;51.364;6.054;2023-06-10T02:41:15;9.88;;;6.28;;
65879;SDS011;52661;51.364;6.054;2023-06-10T02:43:40;10.77;;;5.50;;
65879;SDS011;52661;51.364;6.054;2023-06-10T02:46:05;13.50;;;6.30;;
65879;SDS011;52661;51.364;6.054;2023-06-10T02:48:31;13.82;;;7.25;;
65879;SDS011;52661;51.364;6.054;2023-06-10T02:50:56;10.88;;;6.20;;
65879;SDS011;52661;51.364;6.054;2023-06-10T02:53:22;11.32;;;6.65;;
65879;SDS011;52661;51.364;6.054;2023-06-10T02:55:47;12.10;;;7.22;;
65879;SDS011;52661;51.364;6.054;2023-06-10T02:58:12;11.65;;;6.45;;
65879;SDS011;52661;51.364;6.054;2023-06-10T03:00:38;15.15;;;6.32;;
65879;SDS011;52661;51.364;6.054;2023-06-10T03:03:05;24.70;;;7.05;;
65879;SDS011;52661;51.364;6.054;2023-06-10T03:05:30;59.35;;;9.05;;
65879;SDS011;52661;51.364;6.054;2023-06-10T03:07:56;48.35;;;8.35;;
65879;SDS011;52661;51.364;6.054;2023-06-10T03:10:21;27.03;;;7.73;;
65879;SDS011;52661;51.364;6.054;2023-06-10T03:12:47;18.90;;;6.85;;
65879;SDS011;52661;51.364;6.054;2023-06-10T03:15:12;12.80;;;6.20;;
65879;SDS011;52661;51.364;6.054;2023-06-10T03:17:38;11.98;;;6.03;;
65879;SDS011;52661;51.364;6.054;2023-06-10T03:20:03;11.73;;;6.13;;
65879;SDS011;52661;51.364;6.054;2023-06-10T03:22:33;9.50;;;6.30;;
65879;SDS011;52661;51.364;6.054;2023-06-10T03:24:58;11.13;;;6.97;;
65879;SDS011;52661;51.364;6.054;2023-06-10T03:27:24;9.85;;;6.63;;
65879;SDS011;52661;51.364;6.054;2023-06-10T03:29:50;10.73;;;6.43;;
65879;SDS011;52661;51.364;6.054;2023-06-10T03:32:15;12.60;;;6.35;;
65879;SDS011;52661;51.364;6.054;2023-06-10T03:34:40;12.37;;;6.23;;
65879;SDS011;52661;51.364;6.054;2023-06-10T03:37:06;12.57;;;6.63;;
65879;SDS011;52661;51.364;6.054;2023-06-10T03:39:32;10.55;;;6.63;;
65879;SDS011;52661;51.364;6.054;2023-06-10T03:41:57;11.60;;;6.82;;
65879;SDS011;52661;51.364;6.054;2023-06-10T03:44:24;12.35;;;6.28;;
65879;SDS011;52661;51.364;6.054;2023-06-10T03:46:51;12.93;;;6.57;;
65879;SDS011;52661;51.364;6.054;2023-06-10T03:49:16;11.05;;;6.80;;
65879;SDS011;52661;51.364;6.054;2023-06-10T03:51:42;13.18;;;7.45;;
65879;SDS011;52661;51.364;6.054;2023-06-10T03:54:08;11.02;;;7.07;;
65879;SDS011;52661;51.364;6.054;2023-06-10T03:56:33;11.15;;;6.78;;
65879;SDS011;52661;51.364;6.054;2023-06-10T03:58:58;11.90;;;6.57;;
65879;SDS011;52661;51.364;6.054;2023-06-10T04:01:24;11.32;;;6.25;;
65879;SDS011;52661;51.364;6.054;2023-06-10T04:03:49;10.68;;;6.78;;
65879;SDS011;52661;51.364;6.054;2023-06-10T04:06:16;13.00;;;6.70;;
65879;SDS011;52661;51.364;6.054;2023-06-10T04:08:41;12.02;;;6.47;;
65879;SDS011;52661;51.364;6.054;2023-06-10T04:11:08;10.43;;;6.63;;
65879;SDS011;52661;51.364;6.054;2023-06-10T04:13:33;12.68;;;6.32;;
65879;SDS011;52661;51.364;6.054;2023-06-10T04:15:59;11.68;;;6.72;;
65879;SDS011;52661;51.364;6.054;2023-06-10T04:18:24;13.57;;;6.78;;
65879;SDS011;52661;51.364;6.054;2023-06-10T04:20:50;12.25;;;6.28;;
65879;SDS011;52661;51.364;6.054;2023-06-10T04:23:16;12.15;;;7.03;;
65879;SDS011;52661;51.364;6.054;2023-06-10T04:25:41;11.18;;;6.25;;
65879;SDS011;52661;51.364;6.054;2023-06-10T04:28:07;11.20;;;6.13;;
65879;SDS011;52661;51.364;6.054;2023-06-10T04:30:32;12.00;;;7.28;;
65879;SDS011;52661;51.364;6.054;2023-06-10T04:32:58;11.60;;;6.88;;
65879;SDS011;52661;51.364;6.054;2023-06-10T04:35:24;11.50;;;8.07;;
65879;SDS011;52661;51.364;6.054;2023-06-10T04:37:52;13.77;;;7.75;;
65879;SDS011;52661;51.364;6.054;2023-06-10T04:40:18;12.15;;;6.80;;
65879;SDS011;52661;51.364;6.054;2023-06-10T04:42:44;12.07;;;7.05;;
65879;SDS011;52661;51.364;6.054;2023-06-10T04:45:09;15.20;;;7.93;;
65879;SDS011;52661;51.364;6.054;2023-06-10T04:47:35;14.52;;;7.38;;
65879;SDS011;52661;51.364;6.054;2023-06-10T04:50:00;13.70;;;6.87;;
65879;SDS011;52661;51.364;6.054;2023-06-10T04:52:26;11.25;;;6.80;;
65879;SDS011;52661;51.364;6.054;2023-06-10T04:54:52;11.23;;;6.65;;
65879;SDS011;52661;51.364;6.054;2023-06-10T04:57:18;11.32;;;7.50;;
65879;SDS011;52661;51.364;6.054;2023-06-10T04:59:45;13.13;;;8.80;;
65879;SDS011;52661;51.364;6.054;2023-06-10T05:02:10;11.93;;;8.20;;
65879;SDS011;52661;51.364;6.054;2023-06-10T05:04:36;10.68;;;7.25;;
65879;SDS011;52661;51.364;6.054;2023-06-10T05:07:01;12.20;;;7.13;;
65879;SDS011;52661;51.364;6.054;2023-06-10T05:09:26;14.32;;;7.90;;
65879;SDS011;52661;51.364;6.054;2023-06-10T05:11:52;12.30;;;7.90;;
65879;SDS011;52661;51.364;6.054;2023-06-10T05:14:19;12.77;;;7.53;;
65879;SDS011;52661;51.364;6.054;2023-06-10T05:16:46;15.38;;;7.50;;
65879;SDS011;52661;51.364;6.054;2023-06-10T05:19:11;17.08;;;7.80;;
65879;SDS011;52661;51.364;6.054;2023-06-10T05:21:37;13.55;;;7.75;;
65879;SDS011;52661;51.364;6.054;2023-06-10T05:24:02;16.20;;;7.65;;
65879;SDS011;52661;51.364;6.054;2023-06-10T05:26:28;13.07;;;7.68;;
65879;SDS011;52661;51.364;6.054;2023-06-10T05:28:54;10.93;;;6.85;;
65879;SDS011;52661;51.364;6.054;2023-06-10T05:31:19;13.57;;;8.10;;
65879;SDS011;52661;51.364;6.054;2023-06-10T05:33:45;13.00;;;9.05;;
65879;SDS011;52661;51.364;6.054;2023-06-10T05:36:10;11.80;;;6.65;;
65879;SDS011;52661;51.364;6.054;2023-06-10T05:38:35;12.52;;;7.50;;
65879;SDS011;52661;51.364;6.054;2023-06-10T05:41:01;10.80;;;7.03;;
65879;SDS011;52661;51.364;6.054;2023-06-10T05:43:26;12.32;;;7.30;;
65879;SDS011;52661;51.364;6.054;2023-06-10T05:45:52;12.30;;;7.32;;
65879;SDS011;52661;51.364;6.054;2023-06-10T05:48:17;15.50;;;7.60;;
65879;SDS011;52661;51.364;6.054;2023-06-10T05:50:44;11.25;;;7.13;;
65879;SDS011;52661;51.364;6.054;2023-06-10T05:53:13;14.65;;;7.53;;
65879;SDS011;52661;51.364;6.054;2023-06-10T05:55:42;12.75;;;7.82;;
65879;SDS011;52661;51.364;6.054;2023-06-10T05:58:08;13.65;;;7.57;;
65879;SDS011;52661;51.364;6.054;2023-06-10T06:00:33;13.02;;;8.93;;
65879;SDS011;52661;51.364;6.054;2023-06-10T06:02:59;13.98;;;7.43;;
65879;SDS011;52661;51.364;6.054;2023-06-10T06:05:24;18.45;;;7.32;;
65879;SDS011;52661;51.364;6.054;2023-06-10T06:07:50;15.15;;;7.80;;
65879;SDS011;52661;51.364;6.054;2023-06-10T06:10:16;13.65;;;7.32;;
65879;SDS011;52661;51.364;6.054;2023-06-10T06:12:42;16.83;;;8.20;;
65879;SDS011;52661;51.364;6.054;2023-06-10T06:15:08;12.45;;;7.82;;
65879;SDS011;52661;51.364;6.054;2023-06-10T06:17:34;14.68;;;7.05;;
65879;SDS011;52661;51.364;6.054;2023-06-10T06:20:00;14.73;;;7.17;;
65879;SDS011;52661;51.364;6.054;2023-06-10T06:22:25;12.82;;;7.95;;
65879;SDS011;52661;51.364;6.054;2023-06-10T06:24:50;12.53;;;7.30;;
65879;SDS011;52661;51.364;6.054;2023-06-10T06:27:16;14.52;;;6.93;;
65879;SDS011;52661;51.364;6.054;2023-06-10T06:29:41;12.23;;;6.88;;
65879;SDS011;52661;51.364;6.054;2023-06-10T06:32:07;12.05;;;6.50;;
65879;SDS011;52661;51.364;6.054;2023-06-10T06:34:32;10.65;;;6.60;;
65879;SDS011;52661;51.364;6.054;2023-06-10T06:36:58;10.77;;;6.25;;
65879;SDS011;52661;51.364;6.054;2023-06-10T06:39:23;12.13;;;6.50;;
65879;SDS011;52661;51.364;6.054;2023-06-10T06:41:49;11.65;;;7.30;;
65879;SDS011;52661;51.364;6.054;2023-06-10T06:44:14;11.57;;;6.70;;
65879;SDS011;52661;51.364;6.054;2023-06-10T06:46:40;13.00;;;6.35;;
65879;SDS011;52661;51.364;6.054;2023-06-10T06:49:05;13.02;;;6.90;;
65879;SDS011;52661;51.364;6.054;2023-06-10T06:51:31;10.95;;;5.88;;
65879;SDS011;52661;51.364;6.054;2023-06-10T06:53:56;11.95;;;6.40;;
65879;SDS011;52661;51.364;6.054;2023-06-10T06:56:23;11.27;;;5.53;;
65879;SDS011;52661;51.364;6.054;2023-06-10T06:58:49;9.55;;;5.82;;
65879;SDS011;52661;51.364;6.054;2023-06-10T07:01:14;11.75;;;6.40;;
65879;SDS011;52661;51.364;6.054;2023-06-10T07:03:40;13.02;;;6.68;;
65879;SDS011;52661;51.364;6.054;2023-06-10T07:06:06;11.18;;;5.63;;
65879;SDS011;52661;51.364;6.054;2023-06-10T07:08:31;14.00;;;5.75;;
65879;SDS011;52661;51.364;6.054;2023-06-10T07:10:56;16.00;;;6.97;;
65879;SDS011;52661;51.364;6.054;2023-06-10T07:13:22;8.43;;;4.72;;
65879;SDS011;52661;51.364;6.054;2023-06-10T07:15:47;12.38;;;6.22;;
65879;SDS011;52661;51.364;6.054;2023-06-10T07:18:14;10.40;;;5.13;;
65879;SDS011;52661;51.364;6.054;2023-06-10T07:20:40;9.15;;;5.70;;
65879;SDS011;52661;51.364;6.054;2023-06-10T07:23:06;8.95;;;5.45;;
65879;SDS011;52661;51.364;6.054;2023-06-10T07:25:31;9.00;;;6.07;;
65879;SDS011;52661;51.364;6.054;2023-06-10T07:27:57;10.68;;;5.40;;
65879;SDS011;52661;51.364;6.054;2023-06-10T07:30:22;10.10;;;5.07;;
65879;SDS011;52661;51.364;6.054;2023-06-10T07:32:47;11.02;;;5.60;;
65879;SDS011;52661;51.364;6.054;2023-06-10T07:35:13;10.15;;;4.93;;
65879;SDS011;52661;51.364;6.054;2023-06-10T07:37:39;8.63;;;4.80;;
65879;SDS011;52661;51.364;6.054;2023-06-10T07:40:04;9.82;;;4.85;;
65879;SDS011;52661;51.364;6.054;2023-06-10T07:42:31;10.27;;;5.15;;
65879;SDS011;52661;51.364;6.054;2023-06-10T07:44:58;10.07;;;4.55;;
65879;SDS011;52661;51.364;6.054;2023-06-10T07:47:23;8.95;;;4.53;;
65879;SDS011;52661;51.364;6.054;2023-06-10T07:49:48;12.77;;;4.97;;
65879;SDS011;52661;51.364;6.054;2023-06-10T07:52:14;10.88;;;4.63;;
65879;SDS011;52661;51.364;6.054;2023-06-10T07:54:39;12.25;;;4.38;;
65879;SDS011;52661;51.364;6.054;2023-06-10T07:57:05;9.00;;;4.20;;
65879;SDS011;52661;51.364;6.054;2023-06-10T07:59:31;7.32;;;3.65;;
65879;SDS011;52661;51.364;6.054;2023-06-10T08:01:57;9.48;;;4.45;;
65879;SDS011;52661;51.364;6.054;2023-06-10T08:04:22;9.53;;;4.27;;
65879;SDS011;52661;51.364;6.054;2023-06-10T08:06:48;11.90;;;5.00;;
65879;SDS011;52661;51.364;6.054;2023-06-10T08:09:13;8.60;;;4.13;;
65879;SDS011;52661;51.364;6.054;2023-06-10T08:11:39;7.40;;;4.05;;
65879;SDS011;52661;51.364;6.054;2023-06-10T08:14:04;10.77;;;3.95;;
65879;SDS011;52661;51.364;6.054;2023-06-10T08:16:29;9.15;;;4.45;;
65879;SDS011;52661;51.364;6.054;2023-06-10T08:18:55;8.52;;;4.07;;
65879;SDS011;52661;51.364;6.054;2023-06-10T08:21:20;8.77;;;4.80;;
65879;SDS011;52661;51.364;6.054;2023-06-10T08:23:46;7.72;;;4.10;;
65879;SDS011;52661;51.364;6.054;2023-06-10T08:26:11;8.02;;;4.15;;
65879;SDS011;52661;51.364;6.054;2023-06-10T08:28:36;14.43;;;4.43;;
65879;SDS011;52661;51.364;6.054;2023-06-10T08:31:02;8.48;;;4.45;;
65879;SDS011;52661;51.364;6.054;2023-06-10T08:33:27;8.25;;;4.03;;
65879;SDS011;52661;51.364;6.054;2023-06-10T08:35:52;9.65;;;3.58;;
65879;SDS011;52661;51.364;6.054;2023-06-10T08:38:18;7.97;;;4.28;;
65879;SDS011;52661;51.364;6.054;2023-06-10T08:40:43;7.55;;;4.20;;
65879;SDS011;52661;51.364;6.054;2023-06-10T08:43:17;9.32;;;4.22;;
65879;SDS011;52661;51.364;6.054;2023-06-10T08:45:57;8.95;;;4.40;;
65879;SDS011;52661;51.364;6.054;2023-06-10T08:48:25;9.32;;;3.92;;
65879;SDS011;52661;51.364;6.054;2023-06-10T08:50:55;11.50;;;4.47;;
65879;SDS011;52661;51.364;6.054;2023-06-10T08:53:22;9.80;;;3.88;;
65879;SDS011;52661;51.364;6.054;2023-06-10T08:55:52;10.13;;;3.85;;
65879;SDS011;52661;51.364;6.054;2023-06-10T08:58:20;7.32;;;4.07;;
65879;SDS011;52661;51.364;6.054;2023-06-10T09:00:46;8.75;;;3.92;;
65879;SDS011;52661;51.364;6.054;2023-06-10T09:03:12;10.15;;;4.28;;
65879;SDS011;52661;51.364;6.054;2023-06-10T09:05:37;9.68;;;4.18;;
65879;SDS011;52661;51.364;6.054;2023-06-10T09:08:06;8.70;;;3.90;;
65879;SDS011;52661;51.364;6.054;2023-06-10T09:10:34;10.05;;;4.38;;
65879;SDS011;52661;51.364;6.054;2023-06-10T09:13:00;10.80;;;4.43;;
65879;SDS011;52661;51.364;6.054;2023-06-10T09:15:26;8.55;;;3.88;;
65879;SDS011;52661;51.364;6.054;2023-06-10T09:17:51;13.82;;;4.45;;
65879;SDS011;52661;51.364;6.054;2023-06-10T09:20:17;9.90;;;4.45;;
65879;SDS011;52661;51.364;6.054;2023-06-10T09:22:44;9.35;;;4.22;;
65879;SDS011;52661;51.364;6.054;2023-06-10T09:25:11;8.25;;;4.00;;
65879;SDS011;52661;51.364;6.054;2023-06-10T09:27:44;8.00;;;4.32;;
65879;SDS011;52661;51.364;6.054;2023-06-10T09:30:25;6.65;;;3.83;;
65879;SDS011;52661;51.364;6.054;2023-06-10T09:33:11;14.20;;;4.53;;
65879;SDS011;52661;51.364;6.054;2023-06-10T09:35:46;9.68;;;4.38;;
65879;SDS011;52661;51.364;6.054;2023-06-10T09:38:13;8.05;;;3.92;;
65879;SDS011;52661;51.364;6.054;2023-06-10T09:40:53;8.82;;;4.47;;
65879;SDS011;52661;51.364;6.054;2023-06-10T09:43:19;9.07;;;4.32;;
65879;SDS011;52661;51.364;6.054;2023-06-10T09:45:47;7.47;;;3.50;;
65879;SDS011;52661;51.364;6.054;2023-06-10T09:48:13;8.32;;;4.20;;
65879;SDS011;52661;51.364;6.054;2023-06-10T09:50:42;8.88;;;4.20;;
65879;SDS011;52661;51.364;6.054;2023-06-10T09:53:09;9.52;;;3.80;;
65879;SDS011;52661;51.364;6.054;2023-06-10T09:55:37;12.45;;;4.70;;
65879;SDS011;52661;51.364;6.054;2023-06-10T09:58:03;8.75;;;4.55;;
65879;SDS011;52661;51.364;6.054;2023-06-10T10:00:31;11.10;;;5.85;;
65879;SDS011;52661;51.364;6.054;2023-06-10T10:02:57;9.57;;;4.40;;
65879;SDS011;52661;51.364;6.054;2023-06-10T10:05:23;13.10;;;5.15;;
65879;SDS011;52661;51.364;6.054;2023-06-10T10:07:49;15.85;;;4.90;;
65879;SDS011;52661;51.364;6.054;2023-06-10T10:10:17;5.85;;;3.95;;
65879;SDS011;52661;51.364;6.054;2023-06-10T10:12:43;10.32;;;4.28;;
65879;SDS011;52661;51.364;6.054;2023-06-10T10:15:12;9.02;;;4.20;;
65879;SDS011;52661;51.364;6.054;2023-06-10T10:17:42;5.82;;;3.60;;
65879;SDS011;52661;51.364;6.054;2023-06-10T10:20:14;7.57;;;4.45;;
65879;SDS011;52661;51.364;6.054;2023-06-10T10:22:45;8.52;;;4.38;;
65879;SDS011;52661;51.364;6.054;2023-06-10T10:25:23;7.03;;;4.70;;
65879;SDS011;52661;51.364;6.054;2023-06-10T10:27:55;6.60;;;4.57;;
65879;SDS011;52661;51.364;6.054;2023-06-10T10:30:23;7.47;;;3.60;;
65879;SDS011;52661;51.364;6.054;2023-06-10T10:32:57;8.98;;;3.83;;
65879;SDS011;52661;51.364;6.054;2023-06-10T10:35:26;6.93;;;3.95;;
65879;SDS011;52661;51.364;6.054;2023-06-10T10:37:52;6.80;;;3.90;;
65879;SDS011;52661;51.364;6.054;2023-06-10T10:40:18;6.55;;;4.20;;
65879;SDS011;52661;51.364;6.054;2023-06-10T10:42:45;9.02;;;4.40;;
65879;SDS011;52661;51.364;6.054;2023-06-10T10:45:13;6.28;;;3.97;;
65879;SDS011;52661;51.364;6.054;2023-06-10T10:47:39;8.18;;;4.38;;
65879;SDS011;52661;51.364;6.054;2023-06-10T10:50:12;9.27;;;4.03;;
65879;SDS011;52661;51.364;6.054;2023-06-10T10:53:13;7.28;;;4.35;;
65879;SDS011;52661;51.364;6.054;2023-06-10T10:55:32;5.10;;;3.65;;
65879;SDS011;52661;51.364;6.054;2023-06-10T10:57:59;6.78;;;3.38;;
65879;SDS011;52661;51.364;6.054;2023-06-10T11:00:31;10.82;;;3.83;;
65879;SDS011;52661;51.364;6.054;2023-06-10T11:03:07;6.53;;;4.15;;
65879;SDS011;52661;51.364;6.054;2023-06-10T11:05:37;6.28;;;5.68;;
65879;SDS011;52661;51.364;6.054;2023-06-10T11:08:05;8.70;;;3.53;;
65879;SDS011;52661;51.364;6.054;2023-06-10T11:10:35;10.40;;;4.10;;
65879;SDS011;52661;51.364;6.054;2023-06-10T11:15:33;7.35;;;4.07;;
65879;SDS011;52661;51.364;6.054;2023-06-10T11:31:23;12.20;;;4.33;;
65879;SDS011;52661;51.364;6.054;2023-06-10T11:34:03;8.13;;;4.55;;
65879;SDS011;52661;51.364;6.054;2023-06-10T11:36:30;9.57;;;4.18;;
65879;SDS011;52661;51.364;6.054;2023-06-10T11:38:58;6.82;;;4.43;;
65879;SDS011;52661;51.364;6.054;2023-06-10T11:41:25;7.18;;;4.18;;
65879;SDS011;52661;51.364;6.054;2023-06-10T11:43:51;6.13;;;3.70;;
65879;SDS011;52661;51.364;6.054;2023-06-10T11:46:17;10.18;;;4.03;;
65879;SDS011;52661;51.364;6.054;2023-06-10T11:48:53;6.70;;;3.70;;
65879;SDS011;52661;51.364;6.054;2023-06-10T11:51:20;6.35;;;3.78;;
65879;SDS011;52661;51.364;6.054;2023-06-10T11:53:49;8.48;;;4.20;;
65879;SDS011;52661;51.364;6.054;2023-06-10T11:56:27;6.68;;;3.72;;
65879;SDS011;52661;51.364;6.054;2023-06-10T12:01:30;6.43;;;3.75;;
65879;SDS011;52661;51.364;6.054;2023-06-10T12:03:56;6.72;;;3.60;;
65879;SDS011;52661;51.364;6.054;2023-06-10T12:06:42;7.38;;;3.90;;
65879;SDS011;52661;51.364;6.054;2023-06-10T12:09:16;7.35;;;4.25;;
65879;SDS011;52661;51.364;6.054;2023-06-10T12:11:54;6.72;;;4.15;;
65879;SDS011;52661;51.364;6.054;2023-06-10T12:17:15;5.85;;;4.05;;
65879;SDS011;52661;51.364;6.054;2023-06-10T12:19:41;7.22;;;4.13;;
65879;SDS011;52661;51.364;6.054;2023-06-10T12:22:06;8.98;;;4.60;;
65879;SDS011;52661;51.364;6.054;2023-06-10T12:24:32;8.15;;;4.20;;
65879;SDS011;52661;51.364;6.054;2023-06-10T12:26:57;7.75;;;4.50;;
65879;SDS011;52661;51.364;6.054;2023-06-10T12:29:24;6.28;;;4.15;;
65879;SDS011;52661;51.364;6.054;2023-06-10T12:36:56;7.70;;;4.13;;
65879;SDS011;52661;51.364;6.054;2023-06-10T12:39:22;8.75;;;4.93;;
65879;SDS011;52661;51.364;6.054;2023-06-10T12:41:48;6.47;;;4.57;;
65879;SDS011;52661;51.364;6.054;2023-06-10T12:44:14;6.85;;;4.35;;
65879;SDS011;52661;51.364;6.054;2023-06-10T12:46:40;7.78;;;4.53;;
65879;SDS011;52661;51.364;6.054;2023-06-10T12:49:05;9.10;;;4.40;;
65879;SDS011;52661;51.364;6.054;2023-06-10T12:51:31;7.65;;;3.95;;
65879;SDS011;52661;51.364;6.054;2023-06-10T12:53:56;8.27;;;4.60;;
65879;SDS011;52661;51.364;6.054;2023-06-10T12:56:21;9.57;;;4.20;;
65879;SDS011;52661;51.364;6.054;2023-06-10T12:58:47;7.53;;;4.78;;
65879;SDS011;52661;51.364;6.054;2023-06-10T13:01:13;7.18;;;4.28;;
65879;SDS011;52661;51.364;6.054;2023-06-10T13:03:38;9.82;;;4.20;;
65879;SDS011;52661;51.364;6.054;2023-06-10T13:06:05;7.30;;;4.18;;
65879;SDS011;52661;51.364;6.054;2023-06-10T13:08:31;7.97;;;4.28;;
65879;SDS011;52661;51.364;6.054;2023-06-10T13:10:57;6.55;;;4.10;;
65879;SDS011;52661;51.364;6.054;2023-06-10T13:13:23;6.50;;;4.47;;
65879;SDS011;52661;51.364;6.054;2023-06-10T13:15:48;7.13;;;4.90;;
65879;SDS011;52661;51.364;6.054;2023-06-10T13:18:14;5.65;;;4.47;;
65879;SDS011;52661;51.364;6.054;2023-06-10T13:20:40;6.43;;;3.85;;
65879;SDS011;52661;51.364;6.054;2023-06-10T13:23:06;5.75;;;4.10;;
65879;SDS011;52661;51.364;6.054;2023-06-10T13:25:31;8.63;;;4.53;;
65879;SDS011;52661;51.364;6.054;2023-06-10T13:27:57;7.65;;;4.38;;
65879;SDS011;52661;51.364;6.054;2023-06-10T13:30:22;8.13;;;4.53;;
65879;SDS011;52661;51.364;6.054;2023-06-10T13:32:48;6.47;;;4.20;;
65879;SDS011;52661;51.364;6.054;2023-06-10T13:35:13;6.82;;;5.07;;
65879;SDS011;52661;51.364;6.054;2023-06-10T13:37:39;8.43;;;4.78;;
65879;SDS011;52661;51.364;6.054;2023-06-10T13:40:05;7.00;;;4.55;;
65879;SDS011;52661;51.364;6.054;2023-06-10T13:42:30;6.82;;;4.78;;
65879;SDS011;52661;51.364;6.054;2023-06-10T13:44:56;8.98;;;6.20;;
65879;SDS011;52661;51.364;6.054;2023-06-10T13:47:21;8.80;;;4.10;;
65879;SDS011;52661;51.364;6.054;2023-06-10T13:49:47;6.80;;;4.13;;
65879;SDS011;52661;51.364;6.054;2023-06-10T13:52:12;8.52;;;4.20;;
65879;SDS011;52661;51.364;6.054;2023-06-10T13:54:37;7.97;;;4.00;;
65879;SDS011;52661;51.364;6.054;2023-06-10T13:57:03;7.05;;;4.35;;
65879;SDS011;52661;51.364;6.054;2023-06-10T13:59:29;8.55;;;4.50;;
65879;SDS011;52661;51.364;6.054;2023-06-10T14:01:54;8.10;;;4.40;;
65879;SDS011;52661;51.364;6.054;2023-06-10T14:04:21;6.20;;;4.10;;
65879;SDS011;52661;51.364;6.054;2023-06-10T14:06:47;6.55;;;4.22;;
65879;SDS011;52661;51.364;6.054;2023-06-10T14:09:13;7.25;;;4.65;;
65879;SDS011;52661;51.364;6.054;2023-06-10T14:11:39;8.30;;;4.38;;
65879;SDS011;52661;51.364;6.054;2023-06-10T14:14:04;6.47;;;4.50;;
65879;SDS011;52661;51.364;6.054;2023-06-10T14:16:29;6.47;;;4.53;;
65879;SDS011;52661;51.364;6.054;2023-06-10T14:18:55;5.90;;;4.30;;
65879;SDS011;52661;51.364;6.054;2023-06-10T14:21:20;6.85;;;4.80;;
65879;SDS011;52661;51.364;6.054;2023-06-10T14:23:46;5.80;;;4.50;;
65879;SDS011;52661;51.364;6.054;2023-06-10T14:26:11;10.32;;;4.63;;
65879;SDS011;52661;51.364;6.054;2023-06-10T14:28:37;7.10;;;4.65;;
65879;SDS011;52661;51.364;6.054;2023-06-10T14:31:02;8.35;;;5.22;;
65879;SDS011;52661;51.364;6.054;2023-06-10T14:33:28;7.18;;;4.72;;
65879;SDS011;52661;51.364;6.054;2023-06-10T14:35:53;8.65;;;5.78;;
65879;SDS011;52661;51.364;6.054;2023-06-10T14:38:19;5.28;;;4.00;;
65879;SDS011;52661;51.364;6.054;2023-06-10T14:40:44;8.07;;;5.18;;
65879;SDS011;52661;51.364;6.054;2023-06-10T14:43:10;7.75;;;4.45;;
65879;SDS011;52661;51.364;6.054;2023-06-10T14:45:36;9.02;;;4.80;;
65879;SDS011;52661;51.364;6.054;2023-06-10T14:48:02;7.70;;;5.07;;
65879;SDS011;52661;51.364;6.054;2023-06-10T14:50:28;10.23;;;5.00;;
65879;SDS011;52661;51.364;6.054;2023-06-10T14:52:53;8.93;;;4.63;;
65879;SDS011;52661;51.364;6.054;2023-06-10T14:55:19;7.85;;;4.30;;
65879;SDS011;52661;51.364;6.054;2023-06-10T14:57:45;8.25;;;4.35;;
65879;SDS011;52661;51.364;6.054;2023-06-10T15:00:10;7.18;;;4.32;;
65879;SDS011;52661;51.364;6.054;2023-06-10T15:02:36;7.05;;;4.93;;
65879;SDS011;52661;51.364;6.054;2023-06-10T15:05:02;6.65;;;5.68;;
65879;SDS011;52661;51.364;6.054;2023-06-10T15:07:28;6.43;;;4.40;;
65879;SDS011;52661;51.364;6.054;2023-06-10T15:09:53;8.35;;;4.57;;